Wetterdaten: aktuell Sonntag, 29.03.2020 17:05
Datum Zeit Temp. A. Feuchte A. Luftdruck Regen Wind Richtung Richtung Windben
29.03.2020 17:05 13,4 C 53 % 1012,8 hPa 0,0 l/m 0,0 km/h S 173 0,0 km/h
29.03.2020 17:00 13,4 C 54 % 1012,8 hPa 0,0 l/m 0,0 km/h S 173 0,0 km/h
29.03.2020 16:55 13,5 C 52 % 1012,8 hPa 0,0 l/m 0,0 km/h S 186 0,0 km/h
29.03.2020 16:50 13,7 C 51 % 1012,8 hPa 0,0 l/m 0,0 km/h NO 42 0,0 km/h
29.03.2020 16:49 13,7 C 51 % 1012,8 hPa 0,0 l/m 0,0 km/h NO 48 0,0 km/h
29.03.2020 16:45 13,8 C 49 % 1012,7 hPa 0,0 l/m 0,0 km/h SO 142 0,0 km/h
29.03.2020 16:44 13,8 C 49 % 1012,7 hPa 0,0 l/m 0,0 km/h SO 145 0,0 km/h
29.03.2020 16:40 13,9 C 42 % 1012,7 hPa 0,0 l/m 0,0 km/h W-SW 255 0,0 km/h
29.03.2020 16:35 13,9 C 40 % 1012,7 hPa 0,0 l/m 1,6 km/h N-NO 17 16,1 km/h
29.03.2020 16:30 13,9 C 40 % 1012,7 hPa 0,0 l/m 5,9 km/h NO 42 19,3 km/h
29.03.2020 16:25 13,9 C 41 % 1012,7 hPa 0,0 l/m 1,1 km/h N-NO 12 16,1 km/h
29.03.2020 16:20 13,9 C 41 % 1012,6 hPa 0,0 l/m 2,5 km/h N-NO 31 16,1 km/h
29.03.2020 16:15 14,0 C 41 % 1012,6 hPa 0,0 l/m 11,4 km/h N 351 20,9 km/h
29.03.2020 16:10 14,1 C 41 % 1012,6 hPa 0,0 l/m 13,1 km/h N-NO 21 20,9 km/h
29.03.2020 16:09 14,1 C 41 % 1012,6 hPa 0,0 l/m 10,2 km/h NO 47 25,7 km/h
29.03.2020 16:05 14,1 C 40 % 1012,5 hPa 0,0 l/m 18,5 km/h N 7 25,7 km/h
29.03.2020 16:00 14,1 C 40 % 1012,5 hPa 0,0 l/m 9,8 km/h N-NO 12 25,7 km/h
29.03.2020 15:55 14,2 C 40 % 1012,5 hPa 0,0 l/m 10,4 km/h N-NO 29 20,9 km/h
29.03.2020 15:50 14,3 C 40 % 1012,5 hPa 0,0 l/m 7,9 km/h N-NO 23 20,9 km/h
29.03.2020 15:45 14,3 C 41 % 1012,4 hPa 0,0 l/m 2,8 km/h N 7 14,5 km/h
29.03.2020 15:40 14,3 C 43 % 1012,4 hPa 0,0 l/m 0,0 km/h N-NW 329 0,0 km/h
29.03.2020 15:35 14,3 C 42 % 1012,4 hPa 0,0 l/m 0,0 km/h N 360 0,0 km/h
29.03.2020 15:34 14,4 C 42 % 1012,4 hPa 0,0 l/m 1,4 km/h N 354 16,1 km/h
29.03.2020 15:30 14,5 C 40 % 1012,4 hPa 0,0 l/m 8,8 km/h N-NW 343 24,1 km/h
29.03.2020 15:25 14,7 C 40 % 1012,5 hPa 0,0 l/m 7,7 km/h N 1 16,1 km/h
29.03.2020 15:24 14,8 C 41 % 1012,5 hPa 0,0 l/m 17,5 km/h N-NO 23 29,0 km/h
29.03.2020 15:20 15,3 C 41 % 1012,4 hPa 0,0 l/m 12,4 km/h N 352 25,7 km/h
29.03.2020 15:15 15,5 C 40 % 1012,4 hPa 0,0 l/m 5,1 km/h N 7 12,9 km/h
29.03.2020 15:14 15,5 C 40 % 1012,4 hPa 0,0 l/m 6,2 km/h N 352 17,7 km/h
29.03.2020 15:10 15,3 C 40 % 1012,5 hPa 0,0 l/m 4,5 km/h N-NO 12 17,7 km/h
29.03.2020 15:05 15,3 C 41 % 1012,5 hPa 0,0 l/m 4,5 km/h N-NO 26 16,1 km/h
29.03.2020 15:00 15,4 C 39 % 1012,5 hPa 0,0 l/m 8,9 km/h N-NO 12 12,9 km/h
29.03.2020 14:59 15,4 C 39 % 1012,5 hPa 0,0 l/m 7,0 km/h N-NO 12 25,7 km/h
29.03.2020 14:55 15,6 C 40 % 1012,6 hPa 0,0 l/m 0,6 km/h N 7 16,1 km/h
29.03.2020 14:50 15,5 C 40 % 1012,5 hPa 0,0 l/m 0,9 km/h S 169 14,5 km/h
29.03.2020 14:45 15,4 C 41 % 1012,7 hPa 0,0 l/m 3,1 km/h N-NO 21 20,9 km/h
29.03.2020 14:39 15,5 C 43 % 1012,7 hPa 0,0 l/m 1,9 km/h N-NO 28 17,7 km/h
29.03.2020 14:35 15,4 C 41 % 1012,6 hPa 0,0 l/m 3,7 km/h N-NW 333 20,9 km/h
29.03.2020 14:30 15,5 C 41 % 1012,7 hPa 0,0 l/m 0,0 km/h N-NW 346 0,0 km/h
29.03.2020 14:29 15,5 C 44 % 1012,7 hPa 0,0 l/m 0,1 km/h N-NW 346 1,6 km/h
29.03.2020 14:25 15,0 C 43 % 1012,7 hPa 0,0 l/m 0,1 km/h N-NW 346 6,4 km/h
29.03.2020 14:20 14,7 C 45 % 1012,7 hPa 0,0 l/m 9,1 km/h O-NO 61 20,9 km/h
29.03.2020 14:14 14,8 C 42 % 1012,8 hPa 0,0 l/m 17,9 km/h N 3 38,6 km/h
29.03.2020 14:10 14,8 C 42 % 1012,8 hPa 0,0 l/m 0,0 km/h N 349 0,0 km/h
29.03.2020 14:09 14,8 C 42 % 1012,8 hPa 0,0 l/m 9,3 km/h N 7 24,1 km/h
29.03.2020 14:05 15,2 C 40 % 1012,8 hPa 0,0 l/m 2,9 km/h O-NO 61 16,1 km/h
29.03.2020 14:00 15,4 C 44 % 1012,8 hPa 0,0 l/m 2,4 km/h N-NO 31 19,3 km/h
29.03.2020 13:55 15,0 C 45 % 1012,8 hPa 0,0 l/m 0,0 km/h N-NW 338 0,0 km/h
29.03.2020 13:54 15,0 C 45 % 1012,8 hPa 0,0 l/m 0,2 km/h NW 321 8,0 km/h
29.03.2020 13:49 14,8 C 44 % 1012,8 hPa 0,0 l/m 7,4 km/h O-NO 67 19,3 km/h
29.03.2020 13:44 14,8 C 45 % 1013,0 hPa 0,0 l/m 6,6 km/h N-NO 17 20,9 km/h
29.03.2020 13:40 14,8 C 45 % 1013,0 hPa 0,0 l/m 3,5 km/h N 1 20,9 km/h
29.03.2020 13:35 14,6 C 48 % 1013,1 hPa 0,0 l/m 7,3 km/h N-NW 343 17,7 km/h
29.03.2020 13:30 14,4 C 44 % 1013,1 hPa 0,0 l/m 6,0 km/h N-NO 24 20,9 km/h
29.03.2020 13:25 14,8 C 45 % 1013,1 hPa 0,0 l/m 16,1 km/h N 7 19,3 km/h
29.03.2020 13:24 14,9 C 46 % 1013,1 hPa 0,0 l/m 16,5 km/h N-NO 25 27,4 km/h
29.03.2020 13:20 14,9 C 48 % 1013,0 hPa 0,0 l/m 7,4 km/h NO 36 22,5 km/h
29.03.2020 13:15 14,9 C 46 % 1013,1 hPa 0,0 l/m 2,0 km/h N-NO 25 22,5 km/h
29.03.2020 13:10 14,5 C 46 % 1013,2 hPa 0,0 l/m 4,7 km/h N 3 24,1 km/h
29.03.2020 13:04 14,4 C 47 % 1013,1 hPa 0,0 l/m 12,4 km/h NO 38 24,1 km/h
29.03.2020 12:59 14,4 C 49 % 1013,2 hPa 0,0 l/m 7,4 km/h N-NW 347 22,5 km/h
29.03.2020 12:55 14,2 C 47 % 1013,3 hPa 0,0 l/m 14,0 km/h NO 38 16,1 km/h
29.03.2020 12:54 14,2 C 47 % 1013,3 hPa 0,0 l/m 11,6 km/h NO 46 22,5 km/h
29.03.2020 12:50 14,1 C 50 % 1013,2 hPa 0,0 l/m 13,5 km/h N-NO 17 25,7 km/h
29.03.2020 12:45 14,2 C 49 % 1013,3 hPa 0,0 l/m 10,8 km/h N 354 24,1 km/h
29.03.2020 12:39 14,1 C 49 % 1013,3 hPa 0,0 l/m 4,1 km/h NO 52 20,9 km/h
29.03.2020 12:34 14,1 C 48 % 1013,3 hPa 0,0 l/m 8,6 km/h N-NO 23 24,1 km/h
29.03.2020 12:29 14,1 C 47 % 1013,3 hPa 0,0 l/m 9,0 km/h N-NO 23 25,7 km/h
29.03.2020 12:25 14,2 C 47 % 1013,2 hPa 0,0 l/m 9,0 km/h NO 47 29,0 km/h
29.03.2020 12:20 14,1 C 47 % 1013,3 hPa 0,0 l/m 8,8 km/h N 7 22,5 km/h
29.03.2020 12:15 14,2 C 48 % 1013,3 hPa 0,0 l/m 0,0 km/h N 7 0,0 km/h
29.03.2020 12:14 14,2 C 48 % 1013,3 hPa 0,0 l/m 1,1 km/h N-NO 27 14,5 km/h
29.03.2020 12:10 14,0 C 49 % 1013,3 hPa 0,0 l/m 16,8 km/h O-NO 64 25,7 km/h
29.03.2020 12:05 13,9 C 48 % 1013,3 hPa 0,0 l/m 8,4 km/h N 360 20,9 km/h
29.03.2020 12:00 14,0 C 47 % 1013,3 hPa 0,0 l/m 13,1 km/h NO 54 24,1 km/h
29.03.2020 11:55 14,2 C 48 % 1013,3 hPa 0,0 l/m 16,1 km/h N-NO 31 27,4 km/h
29.03.2020 11:50 14,3 C 48 % 1013,3 hPa 0,0 l/m 11,1 km/h N-NO 12 25,7 km/h
29.03.2020 11:45 13,9 C 49 % 1013,4 hPa 0,0 l/m 11,9 km/h NO 45 25,7 km/h
29.03.2020 11:40 14,2 C 49 % 1013,4 hPa 0,0 l/m 14,9 km/h N-NO 23 29,0 km/h
29.03.2020 11:35 14,2 C 51 % 1013,4 hPa 0,0 l/m 0,0 km/h N-NO 12 0,0 km/h
29.03.2020 11:34 14,1 C 51 % 1013,4 hPa 0,0 l/m 5,0 km/h N 3 16,1 km/h
29.03.2020 11:30 14,1 C 49 % 1013,5 hPa 0,0 l/m 16,0 km/h NO 37 27,4 km/h
29.03.2020 11:24 14,0 C 49 % 1013,4 hPa 0,0 l/m 6,2 km/h NO 40 20,9 km/h
29.03.2020 11:20 14,0 C 51 % 1013,5 hPa 0,0 l/m 13,0 km/h N-NO 23 22,5 km/h
29.03.2020 11:15 14,1 C 50 % 1013,6 hPa 0,0 l/m 3,4 km/h N-NO 17 17,7 km/h
29.03.2020 11:10 13,9 C 51 % 1013,6 hPa 0,0 l/m 3,9 km/h N-NO 17 19,3 km/h
29.03.2020 11:04 13,8 C 50 % 1013,6 hPa 0,0 l/m 7,4 km/h NO 48 22,5 km/h
29.03.2020 11:00 13,6 C 51 % 1013,6 hPa 0,0 l/m 3,3 km/h N-NO 32 17,7 km/h
29.03.2020 10:55 13,4 C 51 % 1013,7 hPa 0,0 l/m 3,3 km/h NO 36 17,7 km/h
29.03.2020 10:50 13,6 C 50 % 1013,7 hPa 0,0 l/m 10,4 km/h NO 36 20,9 km/h
29.03.2020 10:45 13,7 C 51 % 1013,6 hPa 0,0 l/m 4,9 km/h N-NO 12 17,7 km/h
29.03.2020 10:39 13,9 C 57 % 1013,6 hPa 0,0 l/m 0,0 km/h W-NW 302 0,0 km/h
29.03.2020 10:35 13,1 C 56 % 1013,6 hPa 0,0 l/m 0,0 km/h S-SW 212 0,0 km/h
29.03.2020 10:34 13,1 C 58 % 1013,6 hPa 0,0 l/m 0,0 km/h S-SW 201 0,0 km/h
29.03.2020 10:30 12,9 C 60 % 1013,7 hPa 0,0 l/m 0,0 km/h S-SO 148 0,0 km/h
29.03.2020 10:25 12,9 C 61 % 1013,8 hPa 0,0 l/m 0,2 km/h S-SO 163 1,6 km/h
29.03.2020 10:20 12,3 C 60 % 1013,7 hPa 0,0 l/m 0,0 km/h S-SO 160 0,0 km/h
_ Min-Zeit 07:25 14:59 15:14 - 18:00 - - 18:00
Minimum _ 3,8 C 39 % 1012,4 hPa - 0,0 km/h - - 0,0 km/h
_ Max-Zeit 14:55 07:30 21:49 18:00 16:05 - - 14:14
Maximum _ 15,6 C 80 % 1014,8 hPa 0,0 l/m 18,5 km/h
N
- - 38,6 km/h
W-NW
Durchschnitt _ 10,2 C 62 % 1013,8 hPa #0,0 l/m 2,6 km/h N - 7,3 km/h